sensor_id;sensor_type;location;lat;lon;timestamp;P1;durP1;ratioP1;P2;durP2;ratioP2
20880;SDS011;10600;53.096;8.802;2022-12-18T00:00:58;103.50;;;47.90;;
20880;SDS011;10600;53.096;8.802;2022-12-18T00:01:58;90.75;;;44.42;;
20880;SDS011;10600;53.096;8.802;2022-12-18T00:02:59;96.25;;;45.63;;
20880;SDS011;10600;53.096;8.802;2022-12-18T00:04:01;98.53;;;47.15;;
20880;SDS011;10600;53.096;8.802;2022-12-18T00:05:04;98.65;;;44.40;;
20880;SDS011;10600;53.096;8.802;2022-12-18T00:06:05;93.85;;;45.58;;
20880;SDS011;10600;53.096;8.802;2022-12-18T00:07:05;94.00;;;46.17;;
20880;SDS011;10600;53.096;8.802;2022-12-18T00:08:06;90.90;;;45.85;;
20880;SDS011;10600;53.096;8.802;2022-12-18T00:09:07;95.53;;;46.42;;
20880;SDS011;10600;53.096;8.802;2022-12-18T00:10:09;93.13;;;44.30;;
20880;SDS011;10600;53.096;8.802;2022-12-18T00:11:19;82.68;;;43.30;;
20880;SDS011;10600;53.096;8.802;2022-12-18T00:12:21;88.43;;;43.80;;
20880;SDS011;10600;53.096;8.802;2022-12-18T00:13:22;86.60;;;43.33;;
20880;SDS011;10600;53.096;8.802;2022-12-18T00:14:23;83.30;;;43.30;;
20880;SDS011;10600;53.096;8.802;2022-12-18T00:15:23;86.85;;;43.03;;
20880;SDS011;10600;53.096;8.802;2022-12-18T00:16:24;88.65;;;44.08;;
20880;SDS011;10600;53.096;8.802;2022-12-18T00:17:26;90.47;;;42.92;;
20880;SDS011;10600;53.096;8.802;2022-12-18T00:18:26;90.60;;;42.50;;
20880;SDS011;10600;53.096;8.802;2022-12-18T00:19:27;91.38;;;43.10;;
20880;SDS011;10600;53.096;8.802;2022-12-18T00:20:28;87.82;;;41.78;;
20880;SDS011;10600;53.096;8.802;2022-12-18T00:21:29;87.18;;;42.67;;
20880;SDS011;10600;53.096;8.802;2022-12-18T00:22:30;88.53;;;43.53;;
20880;SDS011;10600;53.096;8.802;2022-12-18T00:23:31;81.38;;;42.28;;
20880;SDS011;10600;53.096;8.802;2022-12-18T00:24:34;83.25;;;42.75;;
20880;SDS011;10600;53.096;8.802;2022-12-18T00:25:35;77.80;;;42.22;;
20880;SDS011;10600;53.096;8.802;2022-12-18T00:26:37;91.15;;;43.83;;
20880;SDS011;10600;53.096;8.802;2022-12-18T00:27:38;80.07;;;41.05;;
20880;SDS011;10600;53.096;8.802;2022-12-18T00:28:39;85.28;;;41.50;;
20880;SDS011;10600;53.096;8.802;2022-12-18T00:29:40;89.55;;;43.20;;
20880;SDS011;10600;53.096;8.802;2022-12-18T00:30:40;81.40;;;40.53;;
20880;SDS011;10600;53.096;8.802;2022-12-18T00:31:41;87.45;;;41.28;;
20880;SDS011;10600;53.096;8.802;2022-12-18T00:32:42;83.13;;;40.28;;
20880;SDS011;10600;53.096;8.802;2022-12-18T00:33:43;78.88;;;40.35;;
20880;SDS011;10600;53.096;8.802;2022-12-18T00:34:44;84.55;;;41.00;;
20880;SDS011;10600;53.096;8.802;2022-12-18T00:35:44;77.22;;;37.72;;
20880;SDS011;10600;53.096;8.802;2022-12-18T00:36:47;78.95;;;40.08;;
20880;SDS011;10600;53.096;8.802;2022-12-18T00:37:47;78.53;;;39.08;;
20880;SDS011;10600;53.096;8.802;2022-12-18T00:38:48;79.55;;;40.45;;
20880;SDS011;10600;53.096;8.802;2022-12-18T00:39:49;83.00;;;40.92;;
20880;SDS011;10600;53.096;8.802;2022-12-18T00:40:49;79.00;;;40.13;;
20880;SDS011;10600;53.096;8.802;2022-12-18T00:41:50;78.43;;;39.78;;
20880;SDS011;10600;53.096;8.802;2022-12-18T00:43:09;74.47;;;37.53;;
20880;SDS011;10600;53.096;8.802;2022-12-18T00:44:11;85.25;;;41.05;;
20880;SDS011;10600;53.096;8.802;2022-12-18T00:45:13;84.78;;;39.72;;
20880;SDS011;10600;53.096;8.802;2022-12-18T00:46:14;88.13;;;42.28;;
20880;SDS011;10600;53.096;8.802;2022-12-18T00:47:15;84.55;;;38.00;;
20880;SDS011;10600;53.096;8.802;2022-12-18T00:48:15;78.32;;;40.35;;
20880;SDS011;10600;53.096;8.802;2022-12-18T00:49:16;80.32;;;39.05;;
20880;SDS011;10600;53.096;8.802;2022-12-18T00:50:18;82.65;;;41.03;;
20880;SDS011;10600;53.096;8.802;2022-12-18T00:51:19;82.07;;;38.95;;
20880;SDS011;10600;53.096;8.802;2022-12-18T00:52:20;83.93;;;40.40;;
20880;SDS011;10600;53.096;8.802;2022-12-18T00:53:20;79.05;;;40.28;;
20880;SDS011;10600;53.096;8.802;2022-12-18T00:54:21;75.82;;;38.95;;
20880;SDS011;10600;53.096;8.802;2022-12-18T00:55:22;89.50;;;41.25;;
20880;SDS011;10600;53.096;8.802;2022-12-18T00:56:23;92.60;;;42.85;;
20880;SDS011;10600;53.096;8.802;2022-12-18T00:57:24;77.45;;;40.03;;
20880;SDS011;10600;53.096;8.802;2022-12-18T00:58:24;79.45;;;38.97;;
20880;SDS011;10600;53.096;8.802;2022-12-18T00:59:25;72.32;;;36.97;;
20880;SDS011;10600;53.096;8.802;2022-12-18T01:00:25;75.97;;;37.58;;
20880;SDS011;10600;53.096;8.802;2022-12-18T01:01:26;79.22;;;39.13;;
20880;SDS011;10600;53.096;8.802;2022-12-18T01:02:27;76.85;;;38.33;;
20880;SDS011;10600;53.096;8.802;2022-12-18T01:03:27;79.55;;;39.92;;
20880;SDS011;10600;53.096;8.802;2022-12-18T01:04:30;80.00;;;39.08;;
20880;SDS011;10600;53.096;8.802;2022-12-18T01:05:32;82.50;;;38.47;;
20880;SDS011;10600;53.096;8.802;2022-12-18T01:06:33;78.97;;;40.60;;
20880;SDS011;10600;53.096;8.802;2022-12-18T01:07:34;74.90;;;38.13;;
20880;SDS011;10600;53.096;8.802;2022-12-18T01:08:35;82.00;;;41.53;;
20880;SDS011;10600;53.096;8.802;2022-12-18T01:09:36;84.13;;;38.72;;
20880;SDS011;10600;53.096;8.802;2022-12-18T01:10:40;79.97;;;39.35;;
20880;SDS011;10600;53.096;8.802;2022-12-18T01:11:41;82.95;;;38.80;;
20880;SDS011;10600;53.096;8.802;2022-12-18T01:12:42;85.85;;;39.90;;
20880;SDS011;10600;53.096;8.802;2022-12-18T01:13:42;79.85;;;38.55;;
20880;SDS011;10600;53.096;8.802;2022-12-18T01:14:44;79.18;;;39.85;;
20880;SDS011;10600;53.096;8.802;2022-12-18T01:15:48;74.55;;;38.65;;
20880;SDS011;10600;53.096;8.802;2022-12-18T01:16:49;73.88;;;38.25;;
20880;SDS011;10600;53.096;8.802;2022-12-18T01:17:51;82.63;;;38.95;;
20880;SDS011;10600;53.096;8.802;2022-12-18T01:18:53;81.72;;;38.78;;
20880;SDS011;10600;53.096;8.802;2022-12-18T01:19:55;76.45;;;38.35;;
20880;SDS011;10600;53.096;8.802;2022-12-18T01:20:55;75.13;;;38.13;;
20880;SDS011;10600;53.096;8.802;2022-12-18T01:21:56;72.40;;;36.53;;
20880;SDS011;10600;53.096;8.802;2022-12-18T01:22:57;80.65;;;39.58;;
20880;SDS011;10600;53.096;8.802;2022-12-18T01:23:58;77.10;;;36.92;;
20880;SDS011;10600;53.096;8.802;2022-12-18T01:24:58;73.90;;;36.78;;
20880;SDS011;10600;53.096;8.802;2022-12-18T01:26:03;78.57;;;36.92;;
20880;SDS011;10600;53.096;8.802;2022-12-18T01:27:08;74.60;;;36.72;;
20880;SDS011;10600;53.096;8.802;2022-12-18T01:28:09;74.55;;;38.13;;
20880;SDS011;10600;53.096;8.802;2022-12-18T01:29:09;80.38;;;37.95;;
20880;SDS011;10600;53.096;8.802;2022-12-18T01:30:10;70.85;;;37.28;;
20880;SDS011;10600;53.096;8.802;2022-12-18T01:32:19;71.95;;;37.60;;
20880;SDS011;10600;53.096;8.802;2022-12-18T01:33:20;68.72;;;35.70;;
20880;SDS011;10600;53.096;8.802;2022-12-18T01:34:20;73.30;;;36.67;;
20880;SDS011;10600;53.096;8.802;2022-12-18T01:35:22;67.10;;;33.28;;
20880;SDS011;10600;53.096;8.802;2022-12-18T01:36:24;75.38;;;35.78;;
20880;SDS011;10600;53.096;8.802;2022-12-18T01:37:26;69.70;;;35.38;;
20880;SDS011;10600;53.096;8.802;2022-12-18T01:38:28;67.40;;;33.92;;
20880;SDS011;10600;53.096;8.802;2022-12-18T01:39:29;73.85;;;36.55;;
20880;SDS011;10600;53.096;8.802;2022-12-18T01:40:30;70.63;;;34.88;;
20880;SDS011;10600;53.096;8.802;2022-12-18T01:41:31;68.28;;;35.03;;
20880;SDS011;10600;53.096;8.802;2022-12-18T01:42:51;64.47;;;33.92;;
20880;SDS011;10600;53.096;8.802;2022-12-18T01:43:54;68.60;;;33.72;;
20880;SDS011;10600;53.096;8.802;2022-12-18T01:46:22;68.15;;;33.25;;
20880;SDS011;10600;53.096;8.802;2022-12-18T01:47:25;69.68;;;35.70;;
20880;SDS011;10600;53.096;8.802;2022-12-18T01:48:35;71.47;;;33.90;;
20880;SDS011;10600;53.096;8.802;2022-12-18T01:49:36;67.15;;;32.75;;
20880;SDS011;10600;53.096;8.802;2022-12-18T01:50:40;64.43;;;33.38;;
20880;SDS011;10600;53.096;8.802;2022-12-18T01:51:42;66.60;;;35.33;;
20880;SDS011;10600;53.096;8.802;2022-12-18T01:52:45;66.18;;;34.83;;
20880;SDS011;10600;53.096;8.802;2022-12-18T01:53:48;65.43;;;33.33;;
20880;SDS011;10600;53.096;8.802;2022-12-18T01:54:49;67.57;;;33.95;;
20880;SDS011;10600;53.096;8.802;2022-12-18T01:55:53;72.00;;;35.58;;
20880;SDS011;10600;53.096;8.802;2022-12-18T01:56:56;71.38;;;33.50;;
20880;SDS011;10600;53.096;8.802;2022-12-18T01:57:57;68.10;;;33.15;;
20880;SDS011;10600;53.096;8.802;2022-12-18T01:59:02;64.18;;;33.60;;
20880;SDS011;10600;53.096;8.802;2022-12-18T02:00:09;62.67;;;34.28;;
20880;SDS011;10600;53.096;8.802;2022-12-18T02:01:13;60.83;;;31.60;;
20880;SDS011;10600;53.096;8.802;2022-12-18T02:02:14;65.40;;;33.72;;
20880;SDS011;10600;53.096;8.802;2022-12-18T02:03:16;70.35;;;32.40;;
20880;SDS011;10600;53.096;8.802;2022-12-18T02:04:24;61.60;;;32.95;;
20880;SDS011;10600;53.096;8.802;2022-12-18T02:06:45;60.55;;;31.70;;
20880;SDS011;10600;53.096;8.802;2022-12-18T02:10:15;63.20;;;31.20;;
20880;SDS011;10600;53.096;8.802;2022-12-18T02:11:23;64.05;;;32.17;;
20880;SDS011;10600;53.096;8.802;2022-12-18T02:12:52;61.40;;;30.05;;
20880;SDS011;10600;53.096;8.802;2022-12-18T02:14:14;64.88;;;32.15;;
20880;SDS011;10600;53.096;8.802;2022-12-18T02:18:21;59.60;;;29.20;;
20880;SDS011;10600;53.096;8.802;2022-12-18T02:21:14;51.40;;;29.50;;
20880;SDS011;10600;53.096;8.802;2022-12-18T02:23:55;58.42;;;30.30;;
20880;SDS011;10600;53.096;8.802;2022-12-18T02:27:32;65.15;;;31.77;;
20880;SDS011;10600;53.096;8.802;2022-12-18T02:28:36;60.75;;;31.55;;
20880;SDS011;10600;53.096;8.802;2022-12-18T02:30:08;65.40;;;30.88;;
20880;SDS011;10600;53.096;8.802;2022-12-18T02:31:11;64.57;;;33.10;;
20880;SDS011;10600;53.096;8.802;2022-12-18T02:32:27;66.22;;;32.90;;
20880;SDS011;10600;53.096;8.802;2022-12-18T02:33:30;68.10;;;32.70;;
20880;SDS011;10600;53.096;8.802;2022-12-18T02:34:34;71.03;;;35.35;;
20880;SDS011;10600;53.096;8.802;2022-12-18T02:35:38;62.65;;;32.88;;
20880;SDS011;10600;53.096;8.802;2022-12-18T02:36:41;68.95;;;33.97;;
20880;SDS011;10600;53.096;8.802;2022-12-18T02:37:43;61.53;;;30.80;;
20880;SDS011;10600;53.096;8.802;2022-12-18T02:38:47;65.47;;;32.22;;
20880;SDS011;10600;53.096;8.802;2022-12-18T02:39:49;60.08;;;30.50;;
20880;SDS011;10600;53.096;8.802;2022-12-18T02:40:51;65.03;;;31.65;;
20880;SDS011;10600;53.096;8.802;2022-12-18T02:41:54;69.40;;;31.50;;
20880;SDS011;10600;53.096;8.802;2022-12-18T02:42:55;58.60;;;30.35;;
20880;SDS011;10600;53.096;8.802;2022-12-18T02:44:06;60.90;;;31.40;;
20880;SDS011;10600;53.096;8.802;2022-12-18T02:45:08;61.38;;;30.55;;
20880;SDS011;10600;53.096;8.802;2022-12-18T02:46:23;59.55;;;28.38;;
20880;SDS011;10600;53.096;8.802;2022-12-18T02:47:27;61.83;;;30.42;;
20880;SDS011;10600;53.096;8.802;2022-12-18T02:48:32;62.33;;;29.75;;
20880;SDS011;10600;53.096;8.802;2022-12-18T02:49:36;58.80;;;30.40;;
20880;SDS011;10600;53.096;8.802;2022-12-18T02:50:49;56.63;;;28.42;;
20880;SDS011;10600;53.096;8.802;2022-12-18T02:53:17;57.40;;;27.60;;
20880;SDS011;10600;53.096;8.802;2022-12-18T02:54:49;58.90;;;29.98;;
20880;SDS011;10600;53.096;8.802;2022-12-18T02:56:15;59.58;;;29.90;;
20880;SDS011;10600;53.096;8.802;2022-12-18T02:57:34;58.85;;;30.02;;
20880;SDS011;10600;53.096;8.802;2022-12-18T02:58:58;58.05;;;30.58;;
20880;SDS011;10600;53.096;8.802;2022-12-18T03:00:16;56.20;;;26.80;;
20880;SDS011;10600;53.096;8.802;2022-12-18T03:04:04;57.40;;;30.33;;
20880;SDS011;10600;53.096;8.802;2022-12-18T03:05:31;55.95;;;28.13;;
20880;SDS011;10600;53.096;8.802;2022-12-18T03:06:37;50.75;;;28.02;;
20880;SDS011;10600;53.096;8.802;2022-12-18T03:07:46;61.50;;;29.55;;
20880;SDS011;10600;53.096;8.802;2022-12-18T03:08:58;53.85;;;26.10;;
20880;SDS011;10600;53.096;8.802;2022-12-18T03:10:02;53.08;;;26.95;;
20880;SDS011;10600;53.096;8.802;2022-12-18T03:11:06;54.72;;;28.10;;
20880;SDS011;10600;53.096;8.802;2022-12-18T03:12:12;52.35;;;27.42;;
20880;SDS011;10600;53.096;8.802;2022-12-18T03:13:37;57.97;;;26.88;;
20880;SDS011;10600;53.096;8.802;2022-12-18T03:14:53;52.75;;;26.58;;
20880;SDS011;10600;53.096;8.802;2022-12-18T03:15:55;57.05;;;27.25;;
20880;SDS011;10600;53.096;8.802;2022-12-18T03:16:59;59.42;;;29.02;;
20880;SDS011;10600;53.096;8.802;2022-12-18T03:18:03;61.15;;;28.83;;
20880;SDS011;10600;53.096;8.802;2022-12-18T03:19:11;55.55;;;27.80;;
20880;SDS011;10600;53.096;8.802;2022-12-18T03:20:17;54.88;;;28.80;;
20880;SDS011;10600;53.096;8.802;2022-12-18T03:21:23;53.55;;;28.10;;
20880;SDS011;10600;53.096;8.802;2022-12-18T03:22:30;47.47;;;26.10;;
20880;SDS011;10600;53.096;8.802;2022-12-18T03:23:34;52.80;;;26.95;;
20880;SDS011;10600;53.096;8.802;2022-12-18T03:24:40;53.55;;;26.77;;
20880;SDS011;10600;53.096;8.802;2022-12-18T03:25:41;54.42;;;25.52;;
20880;SDS011;10600;53.096;8.802;2022-12-18T03:26:44;49.83;;;25.85;;
20880;SDS011;10600;53.096;8.802;2022-12-18T03:27:48;54.80;;;25.40;;
20880;SDS011;10600;53.096;8.802;2022-12-18T03:28:55;43.10;;;24.77;;
20880;SDS011;10600;53.096;8.802;2022-12-18T03:30:02;46.30;;;25.15;;
20880;SDS011;10600;53.096;8.802;2022-12-18T03:31:09;45.50;;;24.02;;
20880;SDS011;10600;53.096;8.802;2022-12-18T03:32:16;48.85;;;26.48;;
20880;SDS011;10600;53.096;8.802;2022-12-18T03:33:30;48.33;;;25.98;;
20880;SDS011;10600;53.096;8.802;2022-12-18T03:34:45;51.63;;;26.35;;
20880;SDS011;10600;53.096;8.802;2022-12-18T03:35:48;42.20;;;24.30;;
20880;SDS011;10600;53.096;8.802;2022-12-18T03:36:50;50.15;;;26.40;;
20880;SDS011;10600;53.096;8.802;2022-12-18T03:37:50;52.75;;;26.67;;
20880;SDS011;10600;53.096;8.802;2022-12-18T03:38:51;48.10;;;24.38;;
20880;SDS011;10600;53.096;8.802;2022-12-18T03:39:52;50.97;;;25.38;;
20880;SDS011;10600;53.096;8.802;2022-12-18T03:40:59;48.55;;;25.00;;
20880;SDS011;10600;53.096;8.802;2022-12-18T03:42:26;51.60;;;24.02;;
20880;SDS011;10600;53.096;8.802;2022-12-18T03:45:05;46.17;;;22.98;;
20880;SDS011;10600;53.096;8.802;2022-12-18T03:46:17;44.08;;;23.73;;
20880;SDS011;10600;53.096;8.802;2022-12-18T03:48:44;44.90;;;23.77;;
20880;SDS011;10600;53.096;8.802;2022-12-18T03:51:10;47.97;;;24.88;;
20880;SDS011;10600;53.096;8.802;2022-12-18T03:53:28;43.45;;;23.77;;
20880;SDS011;10600;53.096;8.802;2022-12-18T03:54:38;46.25;;;24.15;;
20880;SDS011;10600;53.096;8.802;2022-12-18T03:55:40;49.42;;;25.50;;
20880;SDS011;10600;53.096;8.802;2022-12-18T03:56:44;40.75;;;23.25;;
20880;SDS011;10600;53.096;8.802;2022-12-18T03:57:48;46.20;;;24.60;;
20880;SDS011;10600;53.096;8.802;2022-12-18T03:58:50;44.95;;;23.42;;
20880;SDS011;10600;53.096;8.802;2022-12-18T03:59:56;49.30;;;25.92;;
20880;SDS011;10600;53.096;8.802;2022-12-18T04:01:03;50.97;;;25.65;;
20880;SDS011;10600;53.096;8.802;2022-12-18T04:02:10;48.65;;;25.17;;
20880;SDS011;10600;53.096;8.802;2022-12-18T04:03:11;52.00;;;24.90;;
20880;SDS011;10600;53.096;8.802;2022-12-18T04:04:14;46.78;;;23.77;;
20880;SDS011;10600;53.096;8.802;2022-12-18T04:05:16;49.47;;;25.15;;
20880;SDS011;10600;53.096;8.802;2022-12-18T04:06:18;47.15;;;24.85;;
20880;SDS011;10600;53.096;8.802;2022-12-18T04:07:19;51.35;;;24.35;;
20880;SDS011;10600;53.096;8.802;2022-12-18T04:08:21;49.28;;;25.23;;
20880;SDS011;10600;53.096;8.802;2022-12-18T04:09:23;43.72;;;24.10;;
20880;SDS011;10600;53.096;8.802;2022-12-18T04:10:25;44.65;;;23.25;;
20880;SDS011;10600;53.096;8.802;2022-12-18T04:11:26;40.70;;;22.05;;
20880;SDS011;10600;53.096;8.802;2022-12-18T04:12:28;39.72;;;22.40;;
20880;SDS011;10600;53.096;8.802;2022-12-18T04:13:32;41.30;;;23.25;;
20880;SDS011;10600;53.096;8.802;2022-12-18T04:14:37;48.10;;;23.08;;
20880;SDS011;10600;53.096;8.802;2022-12-18T04:15:37;37.53;;;21.83;;
20880;SDS011;10600;53.096;8.802;2022-12-18T04:16:39;47.67;;;24.73;;
20880;SDS011;10600;53.096;8.802;2022-12-18T04:17:43;43.67;;;23.05;;
20880;SDS011;10600;53.096;8.802;2022-12-18T04:18:48;46.92;;;23.35;;
20880;SDS011;10600;53.096;8.802;2022-12-18T04:19:49;39.05;;;21.42;;
20880;SDS011;10600;53.096;8.802;2022-12-18T04:20:50;47.80;;;23.48;;
20880;SDS011;10600;53.096;8.802;2022-12-18T04:21:50;41.92;;;22.52;;
20880;SDS011;10600;53.096;8.802;2022-12-18T04:22:51;42.47;;;23.02;;
20880;SDS011;10600;53.096;8.802;2022-12-18T04:23:51;42.55;;;22.08;;
20880;SDS011;10600;53.096;8.802;2022-12-18T04:24:52;40.67;;;22.48;;
20880;SDS011;10600;53.096;8.802;2022-12-18T04:25:53;40.38;;;21.98;;
20880;SDS011;10600;53.096;8.802;2022-12-18T04:26:54;47.30;;;23.25;;
20880;SDS011;10600;53.096;8.802;2022-12-18T04:27:55;48.70;;;23.00;;
20880;SDS011;10600;53.096;8.802;2022-12-18T04:28:55;40.42;;;22.55;;
20880;SDS011;10600;53.096;8.802;2022-12-18T04:29:56;45.25;;;23.40;;
20880;SDS011;10600;53.096;8.802;2022-12-18T04:30:56;39.88;;;22.23;;
20880;SDS011;10600;53.096;8.802;2022-12-18T04:31:57;42.75;;;22.58;;
20880;SDS011;10600;53.096;8.802;2022-12-18T04:32:58;45.17;;;23.48;;
20880;SDS011;10600;53.096;8.802;2022-12-18T04:33:58;37.58;;;20.95;;
20880;SDS011;10600;53.096;8.802;2022-12-18T04:34:59;39.72;;;23.10;;
20880;SDS011;10600;53.096;8.802;2022-12-18T04:35:59;38.72;;;20.58;;
20880;SDS011;10600;53.096;8.802;2022-12-18T04:37:00;42.53;;;21.70;;
20880;SDS011;10600;53.096;8.802;2022-12-18T04:38:01;43.38;;;21.88;;
20880;SDS011;10600;53.096;8.802;2022-12-18T04:39:01;40.00;;;21.15;;
20880;SDS011;10600;53.096;8.802;2022-12-18T04:40:02;44.58;;;22.85;;
20880;SDS011;10600;53.096;8.802;2022-12-18T04:41:03;38.70;;;21.88;;
20880;SDS011;10600;53.096;8.802;2022-12-18T04:42:04;36.72;;;19.83;;
20880;SDS011;10600;53.096;8.802;2022-12-18T04:43:05;38.22;;;21.60;;
20880;SDS011;10600;53.096;8.802;2022-12-18T04:44:06;45.30;;;22.92;;
20880;SDS011;10600;53.096;8.802;2022-12-18T04:45:07;47.70;;;24.05;;
20880;SDS011;10600;53.096;8.802;2022-12-18T04:46:08;41.33;;;21.58;;
20880;SDS011;10600;53.096;8.802;2022-12-18T04:47:09;51.80;;;25.05;;
20880;SDS011;10600;53.096;8.802;2022-12-18T04:48:09;46.47;;;21.88;;
20880;SDS011;10600;53.096;8.802;2022-12-18T04:49:10;45.30;;;22.67;;
20880;SDS011;10600;53.096;8.802;2022-12-18T04:50:11;43.05;;;22.25;;
20880;SDS011;10600;53.096;8.802;2022-12-18T04:51:12;46.88;;;22.85;;
20880;SDS011;10600;53.096;8.802;2022-12-18T04:52:12;40.47;;;21.42;;
20880;SDS011;10600;53.096;8.802;2022-12-18T04:53:13;43.15;;;21.40;;
20880;SDS011;10600;53.096;8.802;2022-12-18T04:54:14;46.80;;;23.52;;
20880;SDS011;10600;53.096;8.802;2022-12-18T04:55:14;45.00;;;22.02;;
20880;SDS011;10600;53.096;8.802;2022-12-18T04:56:15;43.08;;;21.15;;
20880;SDS011;10600;53.096;8.802;2022-12-18T04:57:16;42.47;;;20.17;;
20880;SDS011;10600;53.096;8.802;2022-12-18T04:58:18;37.30;;;21.52;;
20880;SDS011;10600;53.096;8.802;2022-12-18T04:59:18;43.17;;;21.95;;
20880;SDS011;10600;53.096;8.802;2022-12-18T05:00:19;36.55;;;20.23;;
20880;SDS011;10600;53.096;8.802;2022-12-18T05:01:20;39.88;;;19.67;;
20880;SDS011;10600;53.096;8.802;2022-12-18T05:02:21;42.10;;;20.70;;
20880;SDS011;10600;53.096;8.802;2022-12-18T05:03:22;34.78;;;19.13;;
20880;SDS011;10600;53.096;8.802;2022-12-18T05:04:22;40.15;;;21.98;;
20880;SDS011;10600;53.096;8.802;2022-12-18T05:05:23;36.75;;;20.13;;
20880;SDS011;10600;53.096;8.802;2022-12-18T05:06:23;36.58;;;19.95;;
20880;SDS011;10600;53.096;8.802;2022-12-18T05:07:24;43.08;;;20.35;;
20880;SDS011;10600;53.096;8.802;2022-12-18T05:08:25;42.13;;;19.80;;
20880;SDS011;10600;53.096;8.802;2022-12-18T05:09:26;36.22;;;21.65;;
20880;SDS011;10600;53.096;8.802;2022-12-18T05:10:26;40.92;;;19.23;;
20880;SDS011;10600;53.096;8.802;2022-12-18T05:11:27;35.50;;;18.20;;
20880;SDS011;10600;53.096;8.802;2022-12-18T05:12:28;36.20;;;18.67;;
20880;SDS011;10600;53.096;8.802;2022-12-18T05:13:28;37.70;;;18.55;;
20880;SDS011;10600;53.096;8.802;2022-12-18T05:14:30;30.40;;;16.95;;
20880;SDS011;10600;53.096;8.802;2022-12-18T05:15:30;37.97;;;19.55;;
20880;SDS011;10600;53.096;8.802;2022-12-18T05:16:32;34.78;;;18.05;;
20880;SDS011;10600;53.096;8.802;2022-12-18T05:17:33;36.63;;;18.98;;
20880;SDS011;10600;53.096;8.802;2022-12-18T05:18:33;34.60;;;17.98;;
20880;SDS011;10600;53.096;8.802;2022-12-18T05:19:34;33.72;;;18.30;;
20880;SDS011;10600;53.096;8.802;2022-12-18T05:20:35;34.05;;;19.38;;
20880;SDS011;10600;53.096;8.802;2022-12-18T05:21:35;36.65;;;17.85;;
20880;SDS011;10600;53.096;8.802;2022-12-18T05:22:36;33.97;;;18.25;;
20880;SDS011;10600;53.096;8.802;2022-12-18T05:23:37;36.15;;;17.65;;
20880;SDS011;10600;53.096;8.802;2022-12-18T05:24:37;36.40;;;18.25;;
20880;SDS011;10600;53.096;8.802;2022-12-18T05:25:38;35.78;;;18.88;;
20880;SDS011;10600;53.096;8.802;2022-12-18T05:26:38;37.30;;;19.77;;
20880;SDS011;10600;53.096;8.802;2022-12-18T05:27:39;32.83;;;17.92;;
20880;SDS011;10600;53.096;8.802;2022-12-18T05:28:40;34.08;;;18.23;;
20880;SDS011;10600;53.096;8.802;2022-12-18T05:29:40;33.72;;;17.27;;
20880;SDS011;10600;53.096;8.802;2022-12-18T05:30:42;36.10;;;18.83;;
20880;SDS011;10600;53.096;8.802;2022-12-18T05:31:47;38.58;;;17.67;;
20880;SDS011;10600;53.096;8.802;2022-12-18T05:32:47;35.45;;;18.23;;
20880;SDS011;10600;53.096;8.802;2022-12-18T05:33:48;31.15;;;17.92;;
20880;SDS011;10600;53.096;8.802;2022-12-18T05:34:49;35.65;;;18.85;;
20880;SDS011;10600;53.096;8.802;2022-12-18T05:35:50;30.67;;;18.00;;
20880;SDS011;10600;53.096;8.802;2022-12-18T05:36:51;35.08;;;18.95;;
20880;SDS011;10600;53.096;8.802;2022-12-18T05:37:52;36.53;;;18.70;;
20880;SDS011;10600;53.096;8.802;2022-12-18T05:38:53;35.22;;;20.17;;
20880;SDS011;10600;53.096;8.802;2022-12-18T05:39:53;37.42;;;18.50;;
20880;SDS011;10600;53.096;8.802;2022-12-18T05:40:54;32.05;;;18.38;;
20880;SDS011;10600;53.096;8.802;2022-12-18T05:41:55;32.67;;;18.05;;
20880;SDS011;10600;53.096;8.802;2022-12-18T05:42:56;31.80;;;18.15;;
20880;SDS011;10600;53.096;8.802;2022-12-18T05:43:56;33.58;;;17.98;;
20880;SDS011;10600;53.096;8.802;2022-12-18T05:44:57;35.60;;;19.55;;
20880;SDS011;10600;53.096;8.802;2022-12-18T05:46:01;32.25;;;18.60;;
20880;SDS011;10600;53.096;8.802;2022-12-18T05:47:13;35.85;;;18.02;;
20880;SDS011;10600;53.096;8.802;2022-12-18T05:48:14;28.55;;;16.65;;
20880;SDS011;10600;53.096;8.802;2022-12-18T05:49:15;35.72;;;18.42;;
20880;SDS011;10600;53.096;8.802;2022-12-18T05:50:16;36.35;;;18.08;;
20880;SDS011;10600;53.096;8.802;2022-12-18T05:51:17;36.10;;;16.77;;
20880;SDS011;10600;53.096;8.802;2022-12-18T05:52:20;31.45;;;17.73;;
20880;SDS011;10600;53.096;8.802;2022-12-18T05:53:21;37.28;;;18.30;;
20880;SDS011;10600;53.096;8.802;2022-12-18T05:54:21;30.92;;;17.20;;
20880;SDS011;10600;53.096;8.802;2022-12-18T05:55:22;34.72;;;17.70;;
20880;SDS011;10600;53.096;8.802;2022-12-18T05:56:23;36.63;;;19.05;;
20880;SDS011;10600;53.096;8.802;2022-12-18T05:57:24;31.77;;;18.02;;
20880;SDS011;10600;53.096;8.802;2022-12-18T05:58:24;30.65;;;17.35;;
20880;SDS011;10600;53.096;8.802;2022-12-18T05:59:25;27.83;;;16.75;;
20880;SDS011;10600;53.096;8.802;2022-12-18T06:00:26;30.27;;;17.00;;
20880;SDS011;10600;53.096;8.802;2022-12-18T06:01:27;31.20;;;17.45;;
20880;SDS011;10600;53.096;8.802;2022-12-18T06:02:27;30.88;;;17.77;;
20880;SDS011;10600;53.096;8.802;2022-12-18T06:03:28;31.80;;;18.20;;
20880;SDS011;10600;53.096;8.802;2022-12-18T06:04:29;34.72;;;17.27;;
20880;SDS011;10600;53.096;8.802;2022-12-18T06:05:29;32.78;;;17.77;;
20880;SDS011;10600;53.096;8.802;2022-12-18T06:06:38;32.97;;;18.80;;
20880;SDS011;10600;53.096;8.802;2022-12-18T06:07:39;32.47;;;16.48;;
20880;SDS011;10600;53.096;8.802;2022-12-18T06:08:40;30.95;;;18.58;;
20880;SDS011;10600;53.096;8.802;2022-12-18T06:09:41;36.95;;;19.05;;
20880;SDS011;10600;53.096;8.802;2022-12-18T06:10:41;31.45;;;17.52;;
20880;SDS011;10600;53.096;8.802;2022-12-18T06:11:42;34.70;;;17.02;;
20880;SDS011;10600;53.096;8.802;2022-12-18T06:12:43;35.70;;;16.65;;
20880;SDS011;10600;53.096;8.802;2022-12-18T06:13:43;35.42;;;17.70;;
20880;SDS011;10600;53.096;8.802;2022-12-18T06:14:44;30.77;;;16.13;;
20880;SDS011;10600;53.096;8.802;2022-12-18T06:15:45;35.58;;;16.67;;
20880;SDS011;10600;53.096;8.802;2022-12-18T06:16:45;32.75;;;17.13;;
20880;SDS011;10600;53.096;8.802;2022-12-18T06:17:46;30.40;;;17.73;;
20880;SDS011;10600;53.096;8.802;2022-12-18T06:18:47;36.92;;;17.58;;
20880;SDS011;10600;53.096;8.802;2022-12-18T06:19:47;33.22;;;17.63;;
20880;SDS011;10600;53.096;8.802;2022-12-18T06:20:54;33.08;;;18.38;;
20880;SDS011;10600;53.096;8.802;2022-12-18T06:21:56;35.63;;;18.58;;
20880;SDS011;10600;53.096;8.802;2022-12-18T06:22:58;32.47;;;18.05;;
20880;SDS011;10600;53.096;8.802;2022-12-18T06:23:59;33.13;;;16.88;;
20880;SDS011;10600;53.096;8.802;2022-12-18T06:25:00;30.83;;;17.75;;
20880;SDS011;10600;53.096;8.802;2022-12-18T06:26:08;35.30;;;18.75;;
20880;SDS011;10600;53.096;8.802;2022-12-18T06:27:11;32.83;;;17.45;;
20880;SDS011;10600;53.096;8.802;2022-12-18T06:28:11;28.25;;;16.45;;
20880;SDS011;10600;53.096;8.802;2022-12-18T06:29:12;33.25;;;17.08;;
20880;SDS011;10600;53.096;8.802;2022-12-18T06:30:13;28.83;;;15.88;;
20880;SDS011;10600;53.096;8.802;2022-12-18T06:31:14;30.40;;;16.52;;
20880;SDS011;10600;53.096;8.802;2022-12-18T06:32:14;29.75;;;17.08;;
20880;SDS011;10600;53.096;8.802;2022-12-18T06:33:15;34.53;;;17.30;;
20880;SDS011;10600;53.096;8.802;2022-12-18T06:34:16;30.85;;;16.77;;